sensor_id;sensor_type;location;lat;lon;timestamp;P1;durP1;ratioP1;P2;durP2;ratioP2
1685;SDS011;840;47.980;7.830;2023-04-24T00:01:26;1.27;;;0.63;;
1685;SDS011;840;47.980;7.830;2023-04-24T00:03:54;0.80;;;0.67;;
1685;SDS011;840;47.980;7.830;2023-04-24T00:06:24;0.83;;;0.60;;
1685;SDS011;840;47.980;7.830;2023-04-24T00:08:58;1.00;;;0.70;;
1685;SDS011;840;47.980;7.830;2023-04-24T00:11:27;2.50;;;1.17;;
1685;SDS011;840;47.980;7.830;2023-04-24T00:13:54;1.17;;;0.70;;
1685;SDS011;840;47.980;7.830;2023-04-24T00:16:21;0.60;;;0.47;;
1685;SDS011;840;47.980;7.830;2023-04-24T00:18:48;0.50;;;0.50;;
1685;SDS011;840;47.980;7.830;2023-04-24T00:21:21;0.80;;;0.80;;
1685;SDS011;840;47.980;7.830;2023-04-24T00:23:50;0.70;;;0.70;;
1685;SDS011;840;47.980;7.830;2023-04-24T00:26:17;0.40;;;0.40;;
1685;SDS011;840;47.980;7.830;2023-04-24T00:28:46;1.47;;;0.60;;
1685;SDS011;840;47.980;7.830;2023-04-24T00:31:13;1.00;;;0.63;;
1685;SDS011;840;47.980;7.830;2023-04-24T00:33:40;1.00;;;0.80;;
1685;SDS011;840;47.980;7.830;2023-04-24T00:36:07;2.27;;;0.80;;
1685;SDS011;840;47.980;7.830;2023-04-24T00:38:34;0.73;;;0.50;;
1685;SDS011;840;47.980;7.830;2023-04-24T00:41:01;0.50;;;0.50;;
1685;SDS011;840;47.980;7.830;2023-04-24T00:43:28;0.50;;;0.50;;
1685;SDS011;840;47.980;7.830;2023-04-24T00:45:56;1.07;;;0.50;;
1685;SDS011;840;47.980;7.830;2023-04-24T00:48:24;0.67;;;0.63;;
1685;SDS011;840;47.980;7.830;2023-04-24T00:50:51;1.33;;;0.60;;
1685;SDS011;840;47.980;7.830;2023-04-24T00:53:18;0.50;;;0.50;;
1685;SDS011;840;47.980;7.830;2023-04-24T00:55:45;7.07;;;1.00;;
1685;SDS011;840;47.980;7.830;2023-04-24T00:58:13;0.80;;;0.40;;
1685;SDS011;840;47.980;7.830;2023-04-24T01:00:40;1.80;;;0.67;;
1685;SDS011;840;47.980;7.830;2023-04-24T01:03:08;1.00;;;0.43;;
1685;SDS011;840;47.980;7.830;2023-04-24T01:05:38;0.90;;;0.53;;
1685;SDS011;840;47.980;7.830;2023-04-24T01:08:05;0.60;;;0.50;;
1685;SDS011;840;47.980;7.830;2023-04-24T01:10:32;0.97;;;0.60;;
1685;SDS011;840;47.980;7.830;2023-04-24T01:13:00;1.30;;;0.50;;
1685;SDS011;840;47.980;7.830;2023-04-24T01:15:27;1.67;;;0.70;;
1685;SDS011;840;47.980;7.830;2023-04-24T01:17:54;1.17;;;1.17;;
1685;SDS011;840;47.980;7.830;2023-04-24T01:20:22;0.60;;;0.50;;
1685;SDS011;840;47.980;7.830;2023-04-24T01:22:52;0.40;;;0.40;;
1685;SDS011;840;47.980;7.830;2023-04-24T01:25:21;0.87;;;0.50;;
1685;SDS011;840;47.980;7.830;2023-04-24T01:27:48;1.10;;;0.60;;
1685;SDS011;840;47.980;7.830;2023-04-24T01:30:16;0.67;;;0.50;;
1685;SDS011;840;47.980;7.830;2023-04-24T01:32:43;1.90;;;0.50;;
1685;SDS011;840;47.980;7.830;2023-04-24T01:35:11;1.60;;;0.40;;
1685;SDS011;840;47.980;7.830;2023-04-24T01:37:38;0.93;;;0.57;;
1685;SDS011;840;47.980;7.830;2023-04-24T01:40:07;0.50;;;0.50;;
1685;SDS011;840;47.980;7.830;2023-04-24T01:42:35;0.40;;;0.40;;
1685;SDS011;840;47.980;7.830;2023-04-24T01:45:03;3.33;;;0.70;;
1685;SDS011;840;47.980;7.830;2023-04-24T01:47:32;1.23;;;0.60;;
1685;SDS011;840;47.980;7.830;2023-04-24T01:49:59;2.67;;;0.70;;
1685;SDS011;840;47.980;7.830;2023-04-24T01:52:26;2.10;;;0.90;;
1685;SDS011;840;47.980;7.830;2023-04-24T01:54:56;0.87;;;0.87;;
1685;SDS011;840;47.980;7.830;2023-04-24T01:57:26;1.90;;;0.80;;
1685;SDS011;840;47.980;7.830;2023-04-24T01:59:55;1.63;;;0.83;;
1685;SDS011;840;47.980;7.830;2023-04-24T02:02:22;0.67;;;0.60;;
1685;SDS011;840;47.980;7.830;2023-04-24T02:04:49;1.37;;;0.57;;
1685;SDS011;840;47.980;7.830;2023-04-24T02:07:15;2.70;;;0.80;;
1685;SDS011;840;47.980;7.830;2023-04-24T02:09:42;1.10;;;0.60;;
1685;SDS011;840;47.980;7.830;2023-04-24T02:12:09;0.60;;;0.60;;
1685;SDS011;840;47.980;7.830;2023-04-24T02:14:38;1.23;;;0.90;;
1685;SDS011;840;47.980;7.830;2023-04-24T02:17:05;3.60;;;0.80;;
1685;SDS011;840;47.980;7.830;2023-04-24T02:19:33;0.93;;;0.80;;
1685;SDS011;840;47.980;7.830;2023-04-24T02:22:00;1.90;;;0.80;;
1685;SDS011;840;47.980;7.830;2023-04-24T02:24:27;1.53;;;0.60;;
1685;SDS011;840;47.980;7.830;2023-04-24T02:26:54;3.67;;;1.00;;
1685;SDS011;840;47.980;7.830;2023-04-24T02:29:21;0.90;;;0.50;;
1685;SDS011;840;47.980;7.830;2023-04-24T02:31:49;1.03;;;0.60;;
1685;SDS011;840;47.980;7.830;2023-04-24T02:34:16;0.60;;;0.60;;
1685;SDS011;840;47.980;7.830;2023-04-24T02:36:43;2.43;;;0.77;;
1685;SDS011;840;47.980;7.830;2023-04-24T02:39:10;0.60;;;0.60;;
1685;SDS011;840;47.980;7.830;2023-04-24T02:41:38;0.83;;;0.70;;
1685;SDS011;840;47.980;7.830;2023-04-24T02:44:05;0.40;;;0.40;;
1685;SDS011;840;47.980;7.830;2023-04-24T02:46:31;1.57;;;0.80;;
1685;SDS011;840;47.980;7.830;2023-04-24T02:48:59;1.27;;;0.70;;
1685;SDS011;840;47.980;7.830;2023-04-24T02:51:26;2.77;;;1.00;;
1685;SDS011;840;47.980;7.830;2023-04-24T02:53:53;0.90;;;0.70;;
1685;SDS011;840;47.980;7.830;2023-04-24T02:56:20;2.47;;;0.70;;
1685;SDS011;840;47.980;7.830;2023-04-24T02:58:47;0.57;;;0.57;;
1685;SDS011;840;47.980;7.830;2023-04-24T03:01:14;2.20;;;0.83;;
1685;SDS011;840;47.980;7.830;2023-04-24T03:03:41;0.50;;;0.40;;
1685;SDS011;840;47.980;7.830;2023-04-24T03:06:09;1.20;;;0.60;;
1685;SDS011;840;47.980;7.830;2023-04-24T03:08:36;1.60;;;0.60;;
1685;SDS011;840;47.980;7.830;2023-04-24T03:11:03;0.60;;;0.50;;
1685;SDS011;840;47.980;7.830;2023-04-24T03:13:30;2.20;;;0.80;;
1685;SDS011;840;47.980;7.830;2023-04-24T03:15:57;0.50;;;0.50;;
1685;SDS011;840;47.980;7.830;2023-04-24T03:18:24;1.80;;;0.77;;
1685;SDS011;840;47.980;7.830;2023-04-24T03:20:51;0.60;;;0.60;;
1685;SDS011;840;47.980;7.830;2023-04-24T03:23:19;0.93;;;0.90;;
1685;SDS011;840;47.980;7.830;2023-04-24T03:25:46;2.27;;;0.70;;
1685;SDS011;840;47.980;7.830;2023-04-24T03:28:13;1.40;;;0.63;;
1685;SDS011;840;47.980;7.830;2023-04-24T03:30:40;0.50;;;0.50;;
1685;SDS011;840;47.980;7.830;2023-04-24T03:33:07;1.00;;;0.90;;
1685;SDS011;840;47.980;7.830;2023-04-24T03:35:34;1.13;;;0.67;;
1685;SDS011;840;47.980;7.830;2023-04-24T03:38:01;1.13;;;0.63;;
1685;SDS011;840;47.980;7.830;2023-04-24T03:40:30;1.03;;;0.73;;
1685;SDS011;840;47.980;7.830;2023-04-24T03:42:58;1.70;;;0.80;;
1685;SDS011;840;47.980;7.830;2023-04-24T03:45:25;2.10;;;0.60;;
1685;SDS011;840;47.980;7.830;2023-04-24T03:47:52;3.60;;;0.70;;
1685;SDS011;840;47.980;7.830;2023-04-24T03:50:19;1.33;;;0.67;;
1685;SDS011;840;47.980;7.830;2023-04-24T03:52:46;3.13;;;1.03;;
1685;SDS011;840;47.980;7.830;2023-04-24T03:55:13;0.77;;;0.77;;
1685;SDS011;840;47.980;7.830;2023-04-24T03:57:41;1.47;;;0.70;;
1685;SDS011;840;47.980;7.830;2023-04-24T04:00:08;1.10;;;1.00;;
1685;SDS011;840;47.980;7.830;2023-04-24T04:02:36;2.73;;;1.30;;
1685;SDS011;840;47.980;7.830;2023-04-24T04:05:03;3.30;;;1.53;;
1685;SDS011;840;47.980;7.830;2023-04-24T04:07:30;2.93;;;2.03;;
1685;SDS011;840;47.980;7.830;2023-04-24T04:09:57;1.50;;;1.17;;
1685;SDS011;840;47.980;7.830;2023-04-24T04:12:24;0.80;;;0.80;;
1685;SDS011;840;47.980;7.830;2023-04-24T04:14:52;1.80;;;0.80;;
1685;SDS011;840;47.980;7.830;2023-04-24T04:17:19;3.23;;;0.80;;
1685;SDS011;840;47.980;7.830;2023-04-24T04:19:46;3.40;;;3.10;;
1685;SDS011;840;47.980;7.830;2023-04-24T04:22:13;2.83;;;1.03;;
1685;SDS011;840;47.980;7.830;2023-04-24T04:24:40;2.40;;;2.17;;
1685;SDS011;840;47.980;7.830;2023-04-24T04:27:07;5.13;;;3.37;;
1685;SDS011;840;47.980;7.830;2023-04-24T04:29:34;2.20;;;2.00;;
1685;SDS011;840;47.980;7.830;2023-04-24T04:32:02;5.70;;;1.37;;
1685;SDS011;840;47.980;7.830;2023-04-24T04:34:30;2.93;;;1.23;;
1685;SDS011;840;47.980;7.830;2023-04-24T04:36:58;3.43;;;1.47;;
1685;SDS011;840;47.980;7.830;2023-04-24T04:39:27;1.60;;;1.50;;
1685;SDS011;840;47.980;7.830;2023-04-24T04:41:55;2.00;;;1.60;;
1685;SDS011;840;47.980;7.830;2023-04-24T04:44:23;1.47;;;1.20;;
1685;SDS011;840;47.980;7.830;2023-04-24T04:46:52;7.07;;;4.43;;
1685;SDS011;840;47.980;7.830;2023-04-24T04:49:22;5.10;;;2.03;;
1685;SDS011;840;47.980;7.830;2023-04-24T04:51:49;1.50;;;1.40;;
1685;SDS011;840;47.980;7.830;2023-04-24T04:54:17;9.00;;;4.33;;
1685;SDS011;840;47.980;7.830;2023-04-24T04:56:44;1.80;;;1.27;;
1685;SDS011;840;47.980;7.830;2023-04-24T04:59:11;2.97;;;1.20;;
1685;SDS011;840;47.980;7.830;2023-04-24T05:01:38;1.47;;;1.07;;
1685;SDS011;840;47.980;7.830;2023-04-24T05:04:05;1.10;;;1.00;;
1685;SDS011;840;47.980;7.830;2023-04-24T05:06:33;1.33;;;1.23;;
1685;SDS011;840;47.980;7.830;2023-04-24T05:09:00;1.10;;;0.87;;
1685;SDS011;840;47.980;7.830;2023-04-24T05:11:28;1.60;;;1.50;;
1685;SDS011;840;47.980;7.830;2023-04-24T05:13:55;1.60;;;1.50;;
1685;SDS011;840;47.980;7.830;2023-04-24T05:16:22;2.07;;;1.47;;
1685;SDS011;840;47.980;7.830;2023-04-24T05:18:49;1.70;;;1.60;;
1685;SDS011;840;47.980;7.830;2023-04-24T05:21:15;1.27;;;1.07;;
1685;SDS011;840;47.980;7.830;2023-04-24T05:23:44;1.93;;;1.60;;
1685;SDS011;840;47.980;7.830;2023-04-24T05:26:10;1.40;;;1.30;;
1685;SDS011;840;47.980;7.830;2023-04-24T05:28:37;1.60;;;1.40;;
1685;SDS011;840;47.980;7.830;2023-04-24T05:31:04;4.07;;;3.70;;
1685;SDS011;840;47.980;7.830;2023-04-24T05:33:31;3.27;;;1.67;;
1685;SDS011;840;47.980;7.830;2023-04-24T05:35:58;1.83;;;1.40;;
1685;SDS011;840;47.980;7.830;2023-04-24T05:38:25;2.17;;;1.77;;
1685;SDS011;840;47.980;7.830;2023-04-24T05:40:53;1.77;;;1.67;;
1685;SDS011;840;47.980;7.830;2023-04-24T05:43:20;2.27;;;1.63;;
1685;SDS011;840;47.980;7.830;2023-04-24T05:45:47;4.40;;;2.13;;
1685;SDS011;840;47.980;7.830;2023-04-24T05:48:14;1.83;;;1.73;;
1685;SDS011;840;47.980;7.830;2023-04-24T05:50:42;1.93;;;1.80;;
1685;SDS011;840;47.980;7.830;2023-04-24T05:53:09;3.80;;;1.90;;
1685;SDS011;840;47.980;7.830;2023-04-24T05:55:36;2.17;;;1.97;;
1685;SDS011;840;47.980;7.830;2023-04-24T05:58:05;2.50;;;2.30;;
1685;SDS011;840;47.980;7.830;2023-04-24T06:00:32;3.00;;;2.20;;
1685;SDS011;840;47.980;7.830;2023-04-24T06:02:59;4.77;;;2.90;;
1685;SDS011;840;47.980;7.830;2023-04-24T06:05:28;2.50;;;2.00;;
1685;SDS011;840;47.980;7.830;2023-04-24T06:07:55;3.73;;;2.20;;
1685;SDS011;840;47.980;7.830;2023-04-24T06:10:22;1.83;;;1.73;;
1685;SDS011;840;47.980;7.830;2023-04-24T06:12:49;1.97;;;1.73;;
1685;SDS011;840;47.980;7.830;2023-04-24T06:15:18;2.37;;;2.17;;
1685;SDS011;840;47.980;7.830;2023-04-24T06:17:45;3.83;;;2.20;;
1685;SDS011;840;47.980;7.830;2023-04-24T06:20:12;2.30;;;2.10;;
1685;SDS011;840;47.980;7.830;2023-04-24T06:22:39;2.40;;;1.93;;
1685;SDS011;840;47.980;7.830;2023-04-24T06:25:06;1.60;;;1.50;;
1685;SDS011;840;47.980;7.830;2023-04-24T06:27:34;1.57;;;1.50;;
1685;SDS011;840;47.980;7.830;2023-04-24T06:30:01;2.53;;;2.13;;
1685;SDS011;840;47.980;7.830;2023-04-24T06:32:29;4.40;;;2.00;;
1685;SDS011;840;47.980;7.830;2023-04-24T06:34:56;1.70;;;1.60;;
1685;SDS011;840;47.980;7.830;2023-04-24T06:37:23;2.93;;;2.07;;
1685;SDS011;840;47.980;7.830;2023-04-24T06:39:50;2.20;;;2.10;;
1685;SDS011;840;47.980;7.830;2023-04-24T06:42:23;5.90;;;2.53;;
1685;SDS011;840;47.980;7.830;2023-04-24T06:44:50;2.60;;;2.40;;
1685;SDS011;840;47.980;7.830;2023-04-24T06:47:17;2.60;;;2.33;;
1685;SDS011;840;47.980;7.830;2023-04-24T06:49:45;2.27;;;2.07;;
1685;SDS011;840;47.980;7.830;2023-04-24T06:52:13;2.50;;;2.30;;
1685;SDS011;840;47.980;7.830;2023-04-24T06:54:40;3.13;;;1.63;;
1685;SDS011;840;47.980;7.830;2023-04-24T06:57:08;1.93;;;1.83;;
1685;SDS011;840;47.980;7.830;2023-04-24T06:59:35;2.17;;;1.90;;
1685;SDS011;840;47.980;7.830;2023-04-24T07:02:02;2.87;;;2.67;;
1685;SDS011;840;47.980;7.830;2023-04-24T07:04:29;2.00;;;1.80;;
1685;SDS011;840;47.980;7.830;2023-04-24T07:06:58;4.73;;;1.83;;
1685;SDS011;840;47.980;7.830;2023-04-24T07:09:26;3.80;;;2.10;;
1685;SDS011;840;47.980;7.830;2023-04-24T07:11:53;3.23;;;1.90;;
1685;SDS011;840;47.980;7.830;2023-04-24T07:14:22;1.60;;;1.50;;
1685;SDS011;840;47.980;7.830;2023-04-24T07:16:49;1.67;;;1.57;;
1685;SDS011;840;47.980;7.830;2023-04-24T07:19:16;1.77;;;1.67;;
1685;SDS011;840;47.980;7.830;2023-04-24T07:21:43;1.80;;;1.40;;
1685;SDS011;840;47.980;7.830;2023-04-24T07:24:12;1.90;;;1.80;;
1685;SDS011;840;47.980;7.830;2023-04-24T07:26:38;1.37;;;1.23;;
1685;SDS011;840;47.980;7.830;2023-04-24T07:29:06;2.13;;;1.70;;
1685;SDS011;840;47.980;7.830;2023-04-24T07:31:33;1.60;;;1.50;;
1685;SDS011;840;47.980;7.830;2023-04-24T07:34:00;3.73;;;1.80;;
1685;SDS011;840;47.980;7.830;2023-04-24T07:36:27;2.20;;;1.53;;
1685;SDS011;840;47.980;7.830;2023-04-24T07:38:54;2.73;;;1.93;;
1685;SDS011;840;47.980;7.830;2023-04-24T07:41:23;1.57;;;1.47;;
1685;SDS011;840;47.980;7.830;2023-04-24T07:43:52;1.80;;;1.70;;
1685;SDS011;840;47.980;7.830;2023-04-24T07:46:19;2.10;;;2.00;;
1685;SDS011;840;47.980;7.830;2023-04-24T07:48:48;2.40;;;1.80;;
1685;SDS011;840;47.980;7.830;2023-04-24T07:51:15;2.60;;;1.90;;
1685;SDS011;840;47.980;7.830;2023-04-24T07:53:42;3.10;;;2.40;;
1685;SDS011;840;47.980;7.830;2023-04-24T07:56:09;2.65;;;2.30;;
1685;SDS011;840;47.980;7.830;2023-04-24T07:58:38;1.70;;;1.50;;
1685;SDS011;840;47.980;7.830;2023-04-24T08:01:05;3.80;;;1.97;;
1685;SDS011;840;47.980;7.830;2023-04-24T08:03:32;4.80;;;3.20;;
1685;SDS011;840;47.980;7.830;2023-04-24T08:06:00;2.67;;;2.07;;
1685;SDS011;840;47.980;7.830;2023-04-24T08:08:27;2.30;;;2.10;;
1685;SDS011;840;47.980;7.830;2023-04-24T08:10:54;4.40;;;1.93;;
1685;SDS011;840;47.980;7.830;2023-04-24T08:13:21;3.70;;;1.97;;
1685;SDS011;840;47.980;7.830;2023-04-24T08:15:49;4.10;;;1.97;;
1685;SDS011;840;47.980;7.830;2023-04-24T08:18:16;3.37;;;1.83;;
1685;SDS011;840;47.980;7.830;2023-04-24T08:20:43;2.30;;;2.10;;
1685;SDS011;840;47.980;7.830;2023-04-24T08:23:24;2.07;;;1.83;;
1685;SDS011;840;47.980;7.830;2023-04-24T08:25:51;1.97;;;1.40;;
1685;SDS011;840;47.980;7.830;2023-04-24T08:28:18;1.60;;;1.50;;
1685;SDS011;840;47.980;7.830;2023-04-24T08:30:45;1.87;;;1.77;;
1685;SDS011;840;47.980;7.830;2023-04-24T08:33:14;4.90;;;1.77;;
1685;SDS011;840;47.980;7.830;2023-04-24T08:35:40;2.00;;;1.67;;
1685;SDS011;840;47.980;7.830;2023-04-24T08:38:07;4.23;;;2.20;;
1685;SDS011;840;47.980;7.830;2023-04-24T08:40:34;2.30;;;1.50;;
1685;SDS011;840;47.980;7.830;2023-04-24T08:43:01;2.07;;;1.33;;
1685;SDS011;840;47.980;7.830;2023-04-24T08:45:27;1.23;;;1.13;;
1685;SDS011;840;47.980;7.830;2023-04-24T08:47:55;2.30;;;1.40;;
1685;SDS011;840;47.980;7.830;2023-04-24T08:50:26;2.10;;;1.70;;
1685;SDS011;840;47.980;7.830;2023-04-24T08:52:53;2.33;;;2.13;;
1685;SDS011;840;47.980;7.830;2023-04-24T08:55:21;3.55;;;2.05;;
1685;SDS011;840;47.980;7.830;2023-04-24T08:57:51;2.93;;;1.77;;
1685;SDS011;840;47.980;7.830;2023-04-24T09:00:22;2.13;;;1.77;;
1685;SDS011;840;47.980;7.830;2023-04-24T09:02:49;2.40;;;1.47;;
1685;SDS011;840;47.980;7.830;2023-04-24T09:05:17;3.03;;;1.57;;
1685;SDS011;840;47.980;7.830;2023-04-24T09:07:48;2.13;;;1.53;;
1685;SDS011;840;47.980;7.830;2023-04-24T09:10:18;1.40;;;1.30;;
1685;SDS011;840;47.980;7.830;2023-04-24T09:12:46;1.40;;;1.30;;
1685;SDS011;840;47.980;7.830;2023-04-24T09:15:14;1.33;;;1.30;;
1685;SDS011;840;47.980;7.830;2023-04-24T09:17:41;1.20;;;1.10;;
1685;SDS011;840;47.980;7.830;2023-04-24T09:20:09;1.47;;;1.37;;
1685;SDS011;840;47.980;7.830;2023-04-24T09:22:36;1.13;;;0.97;;
1685;SDS011;840;47.980;7.830;2023-04-24T09:25:05;2.43;;;1.40;;
1685;SDS011;840;47.980;7.830;2023-04-24T09:27:34;1.53;;;1.43;;
1685;SDS011;840;47.980;7.830;2023-04-24T09:30:01;1.50;;;1.40;;
1685;SDS011;840;47.980;7.830;2023-04-24T09:32:30;1.50;;;1.40;;
1685;SDS011;840;47.980;7.830;2023-04-24T09:35:07;1.10;;;0.90;;
1685;SDS011;840;47.980;7.830;2023-04-24T09:37:36;2.80;;;1.77;;
1685;SDS011;840;47.980;7.830;2023-04-24T09:40:14;5.13;;;1.30;;
1685;SDS011;840;47.980;7.830;2023-04-24T09:42:45;2.93;;;1.17;;
1685;SDS011;840;47.980;7.830;2023-04-24T09:45:17;3.67;;;1.03;;
1685;SDS011;840;47.980;7.830;2023-04-24T09:47:45;2.53;;;1.33;;
1685;SDS011;840;47.980;7.830;2023-04-24T09:50:15;1.83;;;1.67;;
1685;SDS011;840;47.980;7.830;2023-04-24T09:52:43;1.70;;;1.40;;
1685;SDS011;840;47.980;7.830;2023-04-24T09:55:28;1.47;;;1.37;;
1685;SDS011;840;47.980;7.830;2023-04-24T09:57:57;2.63;;;2.43;;
1685;SDS011;840;47.980;7.830;2023-04-24T10:00:26;1.40;;;1.30;;
1685;SDS011;840;47.980;7.830;2023-04-24T10:02:55;0.90;;;0.90;;
1685;SDS011;840;47.980;7.830;2023-04-24T10:05:24;1.97;;;1.13;;
1685;SDS011;840;47.980;7.830;2023-04-24T10:07:55;2.93;;;1.30;;
1685;SDS011;840;47.980;7.830;2023-04-24T10:10:25;1.07;;;0.93;;
1685;SDS011;840;47.980;7.830;2023-04-24T10:12:52;1.50;;;0.60;;
1685;SDS011;840;47.980;7.830;2023-04-24T10:15:20;1.30;;;1.07;;
1685;SDS011;840;47.980;7.830;2023-04-24T10:17:48;0.70;;;0.70;;
1685;SDS011;840;47.980;7.830;2023-04-24T10:20:17;1.00;;;1.00;;
1685;SDS011;840;47.980;7.830;2023-04-24T10:22:48;1.30;;;1.10;;
1685;SDS011;840;47.980;7.830;2023-04-24T10:25:17;1.47;;;1.37;;
1685;SDS011;840;47.980;7.830;2023-04-24T10:27:47;1.30;;;1.20;;
1685;SDS011;840;47.980;7.830;2023-04-24T10:30:15;0.80;;;0.80;;
1685;SDS011;840;47.980;7.830;2023-04-24T10:32:42;0.90;;;0.77;;
1685;SDS011;840;47.980;7.830;2023-04-24T10:35:09;1.10;;;0.80;;
1685;SDS011;840;47.980;7.830;2023-04-24T10:37:39;1.50;;;1.30;;
1685;SDS011;840;47.980;7.830;2023-04-24T10:40:09;0.90;;;0.80;;
1685;SDS011;840;47.980;7.830;2023-04-24T10:42:39;2.30;;;0.90;;
1685;SDS011;840;47.980;7.830;2023-04-24T10:45:17;1.37;;;1.30;;
1685;SDS011;840;47.980;7.830;2023-04-24T10:50:42;2.20;;;1.10;;
1685;SDS011;840;47.980;7.830;2023-04-24T10:53:12;0.93;;;0.70;;
1685;SDS011;840;47.980;7.830;2023-04-24T10:55:44;1.00;;;1.00;;
1685;SDS011;840;47.980;7.830;2023-04-24T10:58:12;1.33;;;1.00;;
1685;SDS011;840;47.980;7.830;2023-04-24T11:00:43;1.80;;;1.30;;
1685;SDS011;840;47.980;7.830;2023-04-24T11:03:25;1.70;;;1.50;;
1685;SDS011;840;47.980;7.830;2023-04-24T11:05:57;1.17;;;1.07;;
1685;SDS011;840;47.980;7.830;2023-04-24T11:11:10;2.20;;;1.00;;
1685;SDS011;840;47.980;7.830;2023-04-24T11:16:30;1.90;;;1.00;;
1685;SDS011;840;47.980;7.830;2023-04-24T11:19:02;1.33;;;1.23;;
1685;SDS011;840;47.980;7.830;2023-04-24T11:21:31;2.40;;;1.37;;
1685;SDS011;840;47.980;7.830;2023-04-24T11:23:58;1.63;;;1.23;;
1685;SDS011;840;47.980;7.830;2023-04-24T11:26:48;2.23;;;1.60;;
1685;SDS011;840;47.980;7.830;2023-04-24T11:29:17;4.00;;;1.17;;
1685;SDS011;840;47.980;7.830;2023-04-24T11:31:48;1.37;;;1.07;;
1685;SDS011;840;47.980;7.830;2023-04-24T11:34:17;2.80;;;2.60;;
1685;SDS011;840;47.980;7.830;2023-04-24T11:36:44;3.43;;;1.70;;
1685;SDS011;840;47.980;7.830;2023-04-24T11:39:12;1.43;;;1.13;;
1685;SDS011;840;47.980;7.830;2023-04-24T11:41:40;1.80;;;1.10;;
1685;SDS011;840;47.980;7.830;2023-04-24T11:44:08;1.00;;;1.00;;
1685;SDS011;840;47.980;7.830;2023-04-24T11:46:36;0.80;;;0.80;;
1685;SDS011;840;47.980;7.830;2023-04-24T11:49:06;4.03;;;1.17;;
1685;SDS011;840;47.980;7.830;2023-04-24T11:51:33;1.23;;;1.13;;
1685;SDS011;840;47.980;7.830;2023-04-24T11:54:00;1.43;;;1.23;;
1685;SDS011;840;47.980;7.830;2023-04-24T11:56:29;1.40;;;1.10;;
1685;SDS011;840;47.980;7.830;2023-04-24T11:58:56;5.90;;;1.50;;
1685;SDS011;840;47.980;7.830;2023-04-24T12:01:23;2.60;;;1.53;;
1685;SDS011;840;47.980;7.830;2023-04-24T12:03:50;2.03;;;1.30;;
1685;SDS011;840;47.980;7.830;2023-04-24T12:06:30;3.37;;;1.50;;
1685;SDS011;840;47.980;7.830;2023-04-24T12:08:57;1.30;;;1.20;;
1685;SDS011;840;47.980;7.830;2023-04-24T12:11:24;1.20;;;1.10;;
1685;SDS011;840;47.980;7.830;2023-04-24T12:13:51;1.10;;;1.00;;
1685;SDS011;840;47.980;7.830;2023-04-24T12:16:18;1.70;;;1.17;;
1685;SDS011;840;47.980;7.830;2023-04-24T12:18:45;1.00;;;0.97;;
1685;SDS011;840;47.980;7.830;2023-04-24T12:21:15;2.40;;;1.60;;
1685;SDS011;840;47.980;7.830;2023-04-24T12:23:44;3.43;;;1.30;;
1685;SDS011;840;47.980;7.830;2023-04-24T12:26:11;1.43;;;1.30;;
1685;SDS011;840;47.980;7.830;2023-04-24T12:28:39;2.23;;;0.90;;
1685;SDS011;840;47.980;7.830;2023-04-24T12:31:06;2.00;;;1.10;;
1685;SDS011;840;47.980;7.830;2023-04-24T12:33:34;1.97;;;1.33;;
1685;SDS011;840;47.980;7.830;2023-04-24T12:36:01;2.40;;;1.30;;
1685;SDS011;840;47.980;7.830;2023-04-24T12:38:31;1.90;;;1.13;;
1685;SDS011;840;47.980;7.830;2023-04-24T12:41:06;2.20;;;1.60;;
1685;SDS011;840;47.980;7.830;2023-04-24T12:43:34;3.47;;;1.00;;
1685;SDS011;840;47.980;7.830;2023-04-24T12:46:02;1.43;;;0.70;;
1685;SDS011;840;47.980;7.830;2023-04-24T12:48:28;1.43;;;1.10;;
1685;SDS011;840;47.980;7.830;2023-04-24T12:50:56;1.83;;;1.07;;
1685;SDS011;840;47.980;7.830;2023-04-24T12:53:26;1.13;;;1.03;;
1685;SDS011;840;47.980;7.830;2023-04-24T12:55:54;1.80;;;1.67;;
1685;SDS011;840;47.980;7.830;2023-04-24T12:58:24;3.60;;;1.37;;
1685;SDS011;840;47.980;7.830;2023-04-24T13:00:50;8.40;;;1.40;;
1685;SDS011;840;47.980;7.830;2023-04-24T13:03:17;1.20;;;1.13;;
1685;SDS011;840;47.980;7.830;2023-04-24T13:05:44;2.10;;;1.13;;
1685;SDS011;840;47.980;7.830;2023-04-24T13:08:11;2.80;;;1.40;;
1685;SDS011;840;47.980;7.830;2023-04-24T13:10:39;1.03;;;0.83;;
1685;SDS011;840;47.980;7.830;2023-04-24T13:13:06;1.73;;;1.33;;
1685;SDS011;840;47.980;7.830;2023-04-24T13:15:34;1.70;;;1.17;;
1685;SDS011;840;47.980;7.830;2023-04-24T13:18:01;1.40;;;1.30;;
1685;SDS011;840;47.980;7.830;2023-04-24T13:20:28;0.70;;;0.70;;
1685;SDS011;840;47.980;7.830;2023-04-24T13:22:55;2.40;;;1.17;;
1685;SDS011;840;47.980;7.830;2023-04-24T13:25:22;1.67;;;1.37;;
1685;SDS011;840;47.980;7.830;2023-04-24T13:27:50;2.13;;;1.40;;
1685;SDS011;840;47.980;7.830;2023-04-24T13:30:17;2.87;;;1.80;;
1685;SDS011;840;47.980;7.830;2023-04-24T13:32:45;1.97;;;1.10;;
1685;SDS011;840;47.980;7.830;2023-04-24T13:35:14;4.33;;;1.40;;
1685;SDS011;840;47.980;7.830;2023-04-24T13:37:41;2.03;;;1.63;;
1685;SDS011;840;47.980;7.830;2023-04-24T13:40:08;1.40;;;1.30;;
1685;SDS011;840;47.980;7.830;2023-04-24T13:42:36;2.00;;;1.50;;
1685;SDS011;840;47.980;7.830;2023-04-24T13:45:03;1.43;;;1.33;;
1685;SDS011;840;47.980;7.830;2023-04-24T13:47:30;1.47;;;1.13;;
1685;SDS011;840;47.980;7.830;2023-04-24T13:49:58;1.33;;;1.23;;
1685;SDS011;840;47.980;7.830;2023-04-24T13:52:25;1.40;;;1.27;;
1685;SDS011;840;47.980;7.830;2023-04-24T13:54:52;1.50;;;1.40;;
1685;SDS011;840;47.980;7.830;2023-04-24T13:57:19;2.07;;;1.50;;
1685;SDS011;840;47.980;7.830;2023-04-24T13:59:47;3.77;;;1.57;;
1685;SDS011;840;47.980;7.830;2023-04-24T14:02:13;2.40;;;1.67;;
1685;SDS011;840;47.980;7.830;2023-04-24T14:04:40;3.83;;;1.63;;
1685;SDS011;840;47.980;7.830;2023-04-24T14:07:09;1.90;;;1.30;;
1685;SDS011;840;47.980;7.830;2023-04-24T14:09:35;1.80;;;1.40;;
1685;SDS011;840;47.980;7.830;2023-04-24T14:12:02;4.30;;;1.57;;
1685;SDS011;840;47.980;7.830;2023-04-24T14:14:29;1.20;;;1.20;;
1685;SDS011;840;47.980;7.830;2023-04-24T14:16:56;1.13;;;1.03;;
1685;SDS011;840;47.980;7.830;2023-04-24T14:19:23;1.10;;;1.10;;
1685;SDS011;840;47.980;7.830;2023-04-24T14:21:50;2.10;;;1.37;;
1685;SDS011;840;47.980;7.830;2023-04-24T14:24:18;1.50;;;1.40;;
1685;SDS011;840;47.980;7.830;2023-04-24T14:26:45;4.90;;;1.80;;
1685;SDS011;840;47.980;7.830;2023-04-24T14:29:13;1.93;;;1.57;;
1685;SDS011;840;47.980;7.830;2023-04-24T14:31:41;1.27;;;1.27;;
1685;SDS011;840;47.980;7.830;2023-04-24T14:34:08;4.43;;;1.40;;
1685;SDS011;840;47.980;7.830;2023-04-24T14:36:35;1.50;;;1.40;;
1685;SDS011;840;47.980;7.830;2023-04-24T14:39:02;1.00;;;1.00;;
1685;SDS011;840;47.980;7.830;2023-04-24T14:41:33;2.20;;;1.50;;
1685;SDS011;840;47.980;7.830;2023-04-24T14:44:00;1.67;;;1.57;;
1685;SDS011;840;47.980;7.830;2023-04-24T14:46:27;1.60;;;1.50;;
1685;SDS011;840;47.980;7.830;2023-04-24T14:48:54;1.70;;;1.37;;
1685;SDS011;840;47.980;7.830;2023-04-24T14:51:22;2.37;;;2.23;;
1685;SDS011;840;47.980;7.830;2023-04-24T14:53:48;2.10;;;1.50;;
1685;SDS011;840;47.980;7.830;2023-04-24T14:56:15;3.07;;;1.50;;
1685;SDS011;840;47.980;7.830;2023-04-24T14:58:43;2.90;;;1.97;;
1685;SDS011;840;47.980;7.830;2023-04-24T15:01:10;1.30;;;1.20;;
1685;SDS011;840;47.980;7.830;2023-04-24T15:03:37;3.77;;;2.07;;
1685;SDS011;840;47.980;7.830;2023-04-24T15:06:05;1.90;;;1.80;;
1685;SDS011;840;47.980;7.830;2023-04-24T15:08:32;2.67;;;2.33;;
1685;SDS011;840;47.980;7.830;2023-04-24T15:10:58;5.63;;;1.73;;
1685;SDS011;840;47.980;7.830;2023-04-24T15:13:25;1.87;;;1.77;;
1685;SDS011;840;47.980;7.830;2023-04-24T15:15:54;2.00;;;1.90;;
1685;SDS011;840;47.980;7.830;2023-04-24T15:18:20;3.00;;;2.17;;
1685;SDS011;840;47.980;7.830;2023-04-24T15:20:47;2.23;;;2.07;;
1685;SDS011;840;47.980;7.830;2023-04-24T15:23:14;2.60;;;1.90;;
1685;SDS011;840;47.980;7.830;2023-04-24T15:25:41;1.90;;;1.80;;
1685;SDS011;840;47.980;7.830;2023-04-24T15:28:08;1.70;;;1.57;;
1685;SDS011;840;47.980;7.830;2023-04-24T15:30:36;2.00;;;1.83;;
1685;SDS011;840;47.980;7.830;2023-04-24T15:33:04;2.50;;;2.20;;
1685;SDS011;840;47.980;7.830;2023-04-24T15:35:31;2.80;;;2.30;;
1685;SDS011;840;47.980;7.830;2023-04-24T15:37:58;1.67;;;1.50;;
1685;SDS011;840;47.980;7.830;2023-04-24T15:40:24;2.20;;;1.80;;
1685;SDS011;840;47.980;7.830;2023-04-24T15:42:52;3.00;;;1.70;;